Jmst, North Dakota
Current Conditions -  °F | °C
As of 3:56 PM on Friday 19 Dec 2014 (Local Time) from KJMS Reporting Station
Few Clouds Few Clouds  
Wind Chill: 22°   Ceiling: Unl
Heat Index: 31°   Visibility: 9mi
Dew Point: 27°   Wind: 10mph
Humidity: 85%   Direction: 180°S
Pressure: 29.94"   Gusts: NA
Location:  46.8494°N, 98.7424°W
Report Text: KJMS 192156Z AUTO 18009KT 9SM FEW065 M01/M03 A2994 RMK AO2 SLP159 T10061028
Loading
Personal Weather Stations






























Interactive Weather Map New forecast layout! Learn more

10-Day Weather Forecast

Advertisements
Track Severe Weather on mobile